sensor_id;sensor_type;location;lat;lon;timestamp;P1;durP1;ratioP1;P2;durP2;ratioP2
78903;SDS011;68291;49.602;8.722;2023-03-01T09:01:20;17.67;;;11.90;;
78903;SDS011;68291;49.602;8.722;2023-03-01T09:04:50;21.57;;;13.10;;
78903;SDS011;68291;49.602;8.722;2023-03-01T09:07:22;17.73;;;13.33;;
78903;SDS011;68291;49.602;8.722;2023-03-01T09:10:02;18.57;;;13.67;;
78903;SDS011;68291;49.602;8.722;2023-03-01T09:12:36;14.77;;;12.23;;
78903;SDS011;68291;49.602;8.722;2023-03-01T09:15:06;18.73;;;13.40;;
78903;SDS011;68291;49.602;8.722;2023-03-01T09:17:37;17.80;;;13.43;;
78903;SDS011;68291;49.602;8.722;2023-03-01T09:20:09;15.83;;;12.90;;
78903;SDS011;68291;49.602;8.722;2023-03-01T09:22:39;19.67;;;13.57;;
78903;SDS011;68291;49.602;8.722;2023-03-01T09:25:10;17.10;;;13.20;;
78903;SDS011;68291;49.602;8.722;2023-03-01T09:27:43;18.73;;;13.50;;
78903;SDS011;68291;49.602;8.722;2023-03-01T09:30:15;18.00;;;13.13;;
78903;SDS011;68291;49.602;8.722;2023-03-01T09:32:52;17.03;;;13.43;;
78903;SDS011;68291;49.602;8.722;2023-03-01T09:35:23;19.67;;;13.30;;
78903;SDS011;68291;49.602;8.722;2023-03-01T09:37:54;18.13;;;13.47;;
78903;SDS011;68291;49.602;8.722;2023-03-01T09:40:29;16.27;;;13.37;;
78903;SDS011;68291;49.602;8.722;2023-03-01T09:43:15;17.30;;;13.23;;
78903;SDS011;68291;49.602;8.722;2023-03-01T09:45:58;21.47;;;14.97;;
78903;SDS011;68291;49.602;8.722;2023-03-01T09:48:37;17.40;;;13.17;;
78903;SDS011;68291;49.602;8.722;2023-03-01T09:51:24;18.20;;;13.00;;
78903;SDS011;68291;49.602;8.722;2023-03-01T09:54:05;17.57;;;13.83;;
78903;SDS011;68291;49.602;8.722;2023-03-01T09:56:50;18.37;;;13.00;;
78903;SDS011;68291;49.602;8.722;2023-03-01T10:00:02;16.60;;;12.97;;
78903;SDS011;68291;49.602;8.722;2023-03-01T10:02:55;23.27;;;14.33;;
78903;SDS011;68291;49.602;8.722;2023-03-01T10:05:55;21.43;;;13.60;;
78903;SDS011;68291;49.602;8.722;2023-03-01T10:08:48;17.70;;;13.53;;
78903;SDS011;68291;49.602;8.722;2023-03-01T10:11:30;16.73;;;13.60;;
78903;SDS011;68291;49.602;8.722;2023-03-01T10:14:13;17.37;;;13.37;;
78903;SDS011;68291;49.602;8.722;2023-03-01T10:17:08;16.73;;;13.43;;
78903;SDS011;68291;49.602;8.722;2023-03-01T10:19:53;19.30;;;14.10;;
78903;SDS011;68291;49.602;8.722;2023-03-01T10:22:47;18.77;;;13.63;;
78903;SDS011;68291;49.602;8.722;2023-03-01T10:25:43;17.83;;;12.97;;
78903;SDS011;68291;49.602;8.722;2023-03-01T10:28:44;17.93;;;13.27;;
78903;SDS011;68291;49.602;8.722;2023-03-01T10:31:41;17.07;;;13.07;;
78903;SDS011;68291;49.602;8.722;2023-03-01T10:34:26;18.63;;;13.23;;
78903;SDS011;68291;49.602;8.722;2023-03-01T10:37:08;17.50;;;13.57;;
78903;SDS011;68291;49.602;8.722;2023-03-01T10:39:57;18.60;;;14.20;;
78903;SDS011;68291;49.602;8.722;2023-03-01T10:42:48;18.83;;;13.43;;
78903;SDS011;68291;49.602;8.722;2023-03-01T10:45:30;18.10;;;13.53;;
78903;SDS011;68291;49.602;8.722;2023-03-01T10:48:11;24.30;;;14.30;;
78903;SDS011;68291;49.602;8.722;2023-03-01T10:50:49;16.07;;;13.27;;
78903;SDS011;68291;49.602;8.722;2023-03-01T10:53:48;18.27;;;13.00;;
78903;SDS011;68291;49.602;8.722;2023-03-01T10:56:20;17.67;;;13.17;;
78903;SDS011;68291;49.602;8.722;2023-03-01T11:02:16;18.33;;;13.67;;
78903;SDS011;68291;49.602;8.722;2023-03-01T11:04:58;16.20;;;13.03;;
78903;SDS011;68291;49.602;8.722;2023-03-01T11:07:55;18.03;;;13.77;;
78903;SDS011;68291;49.602;8.722;2023-03-01T11:10:39;15.77;;;12.53;;
78903;SDS011;68291;49.602;8.722;2023-03-01T11:13:13;18.50;;;13.63;;
78903;SDS011;68291;49.602;8.722;2023-03-01T11:15:59;17.53;;;14.03;;
78903;SDS011;68291;49.602;8.722;2023-03-01T11:18:44;17.77;;;13.43;;
78903;SDS011;68291;49.602;8.722;2023-03-01T11:21:32;16.77;;;13.57;;
78903;SDS011;68291;49.602;8.722;2023-03-01T11:24:09;18.40;;;12.63;;
78903;SDS011;68291;49.602;8.722;2023-03-01T11:26:45;16.10;;;13.43;;
78903;SDS011;68291;49.602;8.722;2023-03-01T11:29:25;18.37;;;13.07;;
78903;SDS011;68291;49.602;8.722;2023-03-01T11:32:23;17.73;;;13.03;;
78903;SDS011;68291;49.602;8.722;2023-03-01T11:35:15;18.80;;;13.47;;
78903;SDS011;68291;49.602;8.722;2023-03-01T11:38:09;14.97;;;12.77;;
78903;SDS011;68291;49.602;8.722;2023-03-01T11:40:57;16.70;;;12.87;;
78903;SDS011;68291;49.602;8.722;2023-03-01T11:43:42;16.10;;;13.33;;
78903;SDS011;68291;49.602;8.722;2023-03-01T11:46:38;18.63;;;13.63;;
78903;SDS011;68291;49.602;8.722;2023-03-01T11:49:39;16.70;;;13.23;;
78903;SDS011;68291;49.602;8.722;2023-03-01T11:52:36;16.53;;;13.83;;
78903;SDS011;68291;49.602;8.722;2023-03-01T11:55:32;19.03;;;13.00;;
78903;SDS011;68291;49.602;8.722;2023-03-01T11:58:29;16.93;;;13.83;;
78903;SDS011;68291;49.602;8.722;2023-03-01T12:01:42;15.87;;;12.83;;
78903;SDS011;68291;49.602;8.722;2023-03-01T12:04:42;17.83;;;13.37;;
78903;SDS011;68291;49.602;8.722;2023-03-01T12:07:55;14.77;;;13.03;;
78903;SDS011;68291;49.602;8.722;2023-03-01T12:10:38;17.27;;;13.20;;
78903;SDS011;68291;49.602;8.722;2023-03-01T12:13:41;17.50;;;13.10;;
78903;SDS011;68291;49.602;8.722;2023-03-01T12:16:59;20.03;;;13.20;;
78903;SDS011;68291;49.602;8.722;2023-03-01T12:20:24;16.37;;;12.37;;
78903;SDS011;68291;49.602;8.722;2023-03-01T12:23:20;16.90;;;12.97;;
78903;SDS011;68291;49.602;8.722;2023-03-01T12:26:38;15.13;;;12.40;;
78903;SDS011;68291;49.602;8.722;2023-03-01T12:29:33;15.77;;;13.23;;
78903;SDS011;68291;49.602;8.722;2023-03-01T12:32:27;21.60;;;14.10;;
78903;SDS011;68291;49.602;8.722;2023-03-01T12:35:33;17.50;;;12.47;;
78903;SDS011;68291;49.602;8.722;2023-03-01T12:38:39;20.10;;;12.90;;
78903;SDS011;68291;49.602;8.722;2023-03-01T12:41:32;15.40;;;12.40;;
78903;SDS011;68291;49.602;8.722;2023-03-01T12:44:29;16.83;;;12.23;;
78903;SDS011;68291;49.602;8.722;2023-03-01T12:47:30;19.67;;;13.20;;
78903;SDS011;68291;49.602;8.722;2023-03-01T12:50:21;15.83;;;12.50;;
78903;SDS011;68291;49.602;8.722;2023-03-01T12:53:04;19.70;;;12.40;;
78903;SDS011;68291;49.602;8.722;2023-03-01T12:55:59;18.40;;;11.60;;
78903;SDS011;68291;49.602;8.722;2023-03-01T12:58:50;14.50;;;11.53;;
78903;SDS011;68291;49.602;8.722;2023-03-01T13:01:52;14.20;;;11.77;;
78903;SDS011;68291;49.602;8.722;2023-03-01T13:04:37;15.73;;;12.00;;
78903;SDS011;68291;49.602;8.722;2023-03-01T13:07:34;15.50;;;11.90;;
78903;SDS011;68291;49.602;8.722;2023-03-01T13:10:43;28.37;;;12.30;;
78903;SDS011;68291;49.602;8.722;2023-03-01T13:13:35;13.63;;;11.83;;
78903;SDS011;68291;49.602;8.722;2023-03-01T13:16:39;15.80;;;10.67;;
78903;SDS011;68291;49.602;8.722;2023-03-01T13:19:21;13.73;;;11.23;;
78903;SDS011;68291;49.602;8.722;2023-03-01T13:25:13;12.70;;;10.70;;
78903;SDS011;68291;49.602;8.722;2023-03-01T13:32:05;13.70;;;10.40;;
78903;SDS011;68291;49.602;8.722;2023-03-01T13:38:37;12.27;;;10.10;;
78903;SDS011;68291;49.602;8.722;2023-03-01T13:44:30;13.43;;;10.47;;
78903;SDS011;68291;49.602;8.722;2023-03-01T13:47:36;12.80;;;9.13;;
78903;SDS011;68291;49.602;8.722;2023-03-01T13:50:25;10.93;;;9.53;;
78903;SDS011;68291;49.602;8.722;2023-03-01T13:53:15;13.43;;;10.20;;
78903;SDS011;68291;49.602;8.722;2023-03-01T13:56:09;12.53;;;9.50;;
78903;SDS011;68291;49.602;8.722;2023-03-01T13:58:50;11.80;;;9.03;;
78903;SDS011;68291;49.602;8.722;2023-03-01T14:01:27;10.40;;;9.30;;
78903;SDS011;68291;49.602;8.722;2023-03-01T14:04:22;12.00;;;9.53;;
78903;SDS011;68291;49.602;8.722;2023-03-01T14:07:10;10.63;;;9.43;;
78903;SDS011;68291;49.602;8.722;2023-03-01T14:10:11;9.50;;;8.20;;
78903;SDS011;68291;49.602;8.722;2023-03-01T14:12:52;11.50;;;9.07;;
78903;SDS011;68291;49.602;8.722;2023-03-01T14:15:48;11.33;;;9.27;;
78903;SDS011;68291;49.602;8.722;2023-03-01T14:18:52;10.57;;;8.53;;
78903;SDS011;68291;49.602;8.722;2023-03-01T14:22:12;9.60;;;8.60;;
78903;SDS011;68291;49.602;8.722;2023-03-01T14:25:03;9.47;;;8.53;;
78903;SDS011;68291;49.602;8.722;2023-03-01T14:27:52;10.73;;;8.10;;
78903;SDS011;68291;49.602;8.722;2023-03-01T14:30:38;10.07;;;8.70;;
78903;SDS011;68291;49.602;8.722;2023-03-01T14:33:19;9.50;;;8.50;;
78903;SDS011;68291;49.602;8.722;2023-03-01T14:36:02;11.50;;;8.53;;
78903;SDS011;68291;49.602;8.722;2023-03-01T14:39:15;9.47;;;8.40;;
78903;SDS011;68291;49.602;8.722;2023-03-01T14:42:00;12.63;;;9.10;;
78903;SDS011;68291;49.602;8.722;2023-03-01T14:44:51;11.50;;;8.47;;
78903;SDS011;68291;49.602;8.722;2023-03-01T14:47:43;9.67;;;8.30;;
78903;SDS011;68291;49.602;8.722;2023-03-01T14:50:21;8.77;;;7.93;;
78903;SDS011;68291;49.602;8.722;2023-03-01T14:52:59;8.80;;;7.87;;
78903;SDS011;68291;49.602;8.722;2023-03-01T14:55:56;9.63;;;8.03;;
78903;SDS011;68291;49.602;8.722;2023-03-01T14:59:01;9.33;;;7.63;;
78903;SDS011;68291;49.602;8.722;2023-03-01T15:01:48;9.30;;;8.40;;
78903;SDS011;68291;49.602;8.722;2023-03-01T15:04:24;9.07;;;7.83;;
78903;SDS011;68291;49.602;8.722;2023-03-01T15:07:09;9.23;;;7.93;;
78903;SDS011;68291;49.602;8.722;2023-03-01T15:09:53;9.87;;;8.40;;
78903;SDS011;68291;49.602;8.722;2023-03-01T15:12:41;8.23;;;7.43;;
78903;SDS011;68291;49.602;8.722;2023-03-01T15:15:33;8.23;;;7.23;;
78903;SDS011;68291;49.602;8.722;2023-03-01T15:18:26;9.40;;;7.57;;
78903;SDS011;68291;49.602;8.722;2023-03-01T15:21:17;8.10;;;7.03;;
78903;SDS011;68291;49.602;8.722;2023-03-01T15:23:53;8.63;;;7.40;;
78903;SDS011;68291;49.602;8.722;2023-03-01T15:26:41;9.23;;;7.90;;
78903;SDS011;68291;49.602;8.722;2023-03-01T15:29:31;11.67;;;8.07;;
78903;SDS011;68291;49.602;8.722;2023-03-01T15:32:28;8.63;;;6.70;;
78903;SDS011;68291;49.602;8.722;2023-03-01T15:38:25;9.53;;;7.27;;
78903;SDS011;68291;49.602;8.722;2023-03-01T15:41:22;10.07;;;7.43;;
78903;SDS011;68291;49.602;8.722;2023-03-01T15:43:59;9.33;;;7.80;;
78903;SDS011;68291;49.602;8.722;2023-03-01T15:46:56;10.77;;;7.67;;
78903;SDS011;68291;49.602;8.722;2023-03-01T15:49:47;8.07;;;7.17;;
78903;SDS011;68291;49.602;8.722;2023-03-01T15:52:27;7.87;;;7.00;;
78903;SDS011;68291;49.602;8.722;2023-03-01T15:55:18;8.97;;;7.60;;
78903;SDS011;68291;49.602;8.722;2023-03-01T15:58:10;10.30;;;6.90;;
78903;SDS011;68291;49.602;8.722;2023-03-01T16:00:53;8.30;;;7.03;;
78903;SDS011;68291;49.602;8.722;2023-03-01T16:03:38;7.67;;;6.93;;
78903;SDS011;68291;49.602;8.722;2023-03-01T16:06:17;10.10;;;7.43;;
78903;SDS011;68291;49.602;8.722;2023-03-01T16:08:55;8.87;;;7.57;;
78903;SDS011;68291;49.602;8.722;2023-03-01T16:11:38;10.50;;;7.60;;
78903;SDS011;68291;49.602;8.722;2023-03-01T16:14:24;8.57;;;7.10;;
78903;SDS011;68291;49.602;8.722;2023-03-01T16:17:22;8.40;;;7.60;;
78903;SDS011;68291;49.602;8.722;2023-03-01T16:20:19;10.13;;;8.13;;
78903;SDS011;68291;49.602;8.722;2023-03-01T16:22:59;9.20;;;8.20;;
78903;SDS011;68291;49.602;8.722;2023-03-01T16:25:32;10.17;;;7.57;;
78903;SDS011;68291;49.602;8.722;2023-03-01T16:28:06;11.13;;;8.57;;
78903;SDS011;68291;49.602;8.722;2023-03-01T16:30:52;14.27;;;7.63;;
78903;SDS011;68291;49.602;8.722;2023-03-01T16:33:36;13.57;;;7.43;;
78903;SDS011;68291;49.602;8.722;2023-03-01T16:36:34;9.07;;;7.70;;
78903;SDS011;68291;49.602;8.722;2023-03-01T16:39:15;11.60;;;7.80;;
78903;SDS011;68291;49.602;8.722;2023-03-01T16:41:55;8.53;;;7.43;;
78903;SDS011;68291;49.602;8.722;2023-03-01T16:44:31;9.57;;;7.63;;
78903;SDS011;68291;49.602;8.722;2023-03-01T16:47:30;8.90;;;7.20;;
78903;SDS011;68291;49.602;8.722;2023-03-01T16:50:24;9.03;;;7.47;;
78903;SDS011;68291;49.602;8.722;2023-03-01T16:56:18;9.20;;;6.97;;
78903;SDS011;68291;49.602;8.722;2023-03-01T16:58:51;8.90;;;6.90;;
78903;SDS011;68291;49.602;8.722;2023-03-01T17:01:42;8.30;;;6.77;;
78903;SDS011;68291;49.602;8.722;2023-03-01T17:04:27;14.10;;;9.17;;
78903;SDS011;68291;49.602;8.722;2023-03-01T17:07:12;14.93;;;10.50;;
78903;SDS011;68291;49.602;8.722;2023-03-01T17:09:52;13.00;;;8.97;;
78903;SDS011;68291;49.602;8.722;2023-03-01T17:12:27;11.37;;;9.17;;
78903;SDS011;68291;49.602;8.722;2023-03-01T17:15:00;12.50;;;8.03;;
78903;SDS011;68291;49.602;8.722;2023-03-01T17:17:56;9.07;;;7.07;;
78903;SDS011;68291;49.602;8.722;2023-03-01T17:20:46;10.60;;;7.77;;
78903;SDS011;68291;49.602;8.722;2023-03-01T17:23:37;8.00;;;6.83;;
78903;SDS011;68291;49.602;8.722;2023-03-01T17:26:28;11.00;;;7.10;;
78903;SDS011;68291;49.602;8.722;2023-03-01T17:29:17;11.23;;;7.60;;
78903;SDS011;68291;49.602;8.722;2023-03-01T17:32:19;7.57;;;6.23;;
78903;SDS011;68291;49.602;8.722;2023-03-01T17:34:54;9.37;;;7.00;;
78903;SDS011;68291;49.602;8.722;2023-03-01T17:37:26;10.70;;;7.47;;
78903;SDS011;68291;49.602;8.722;2023-03-01T17:40:01;9.70;;;7.77;;
78903;SDS011;68291;49.602;8.722;2023-03-01T17:42:50;10.07;;;7.40;;
78903;SDS011;68291;49.602;8.722;2023-03-01T17:45:31;9.80;;;7.50;;
78903;SDS011;68291;49.602;8.722;2023-03-01T17:48:17;8.97;;;7.57;;
78903;SDS011;68291;49.602;8.722;2023-03-01T17:51:14;14.37;;;8.10;;
78903;SDS011;68291;49.602;8.722;2023-03-01T17:54:11;10.80;;;7.40;;
78903;SDS011;68291;49.602;8.722;2023-03-01T17:56:45;11.13;;;8.10;;
78903;SDS011;68291;49.602;8.722;2023-03-01T17:59:43;9.70;;;7.70;;
78903;SDS011;68291;49.602;8.722;2023-03-01T18:02:39;9.83;;;7.83;;
78903;SDS011;68291;49.602;8.722;2023-03-01T18:05:30;11.60;;;8.27;;
78903;SDS011;68291;49.602;8.722;2023-03-01T18:08:13;11.73;;;8.23;;
78903;SDS011;68291;49.602;8.722;2023-03-01T18:10:59;12.07;;;8.83;;
78903;SDS011;68291;49.602;8.722;2023-03-01T18:13:40;14.07;;;8.83;;
78903;SDS011;68291;49.602;8.722;2023-03-01T18:16:36;13.83;;;8.80;;
78903;SDS011;68291;49.602;8.722;2023-03-01T18:19:13;13.30;;;8.90;;
78903;SDS011;68291;49.602;8.722;2023-03-01T18:21:59;16.70;;;10.27;;
78903;SDS011;68291;49.602;8.722;2023-03-01T18:24:36;13.90;;;9.60;;
78903;SDS011;68291;49.602;8.722;2023-03-01T18:27:09;13.53;;;9.33;;
78903;SDS011;68291;49.602;8.722;2023-03-01T18:29:49;13.20;;;9.37;;
78903;SDS011;68291;49.602;8.722;2023-03-01T18:32:44;12.80;;;9.33;;
78903;SDS011;68291;49.602;8.722;2023-03-01T18:35:24;12.93;;;9.60;;
78903;SDS011;68291;49.602;8.722;2023-03-01T18:38:15;14.70;;;9.97;;
78903;SDS011;68291;49.602;8.722;2023-03-01T18:41:05;12.30;;;8.97;;
78903;SDS011;68291;49.602;8.722;2023-03-01T18:44:01;12.17;;;8.70;;
78903;SDS011;68291;49.602;8.722;2023-03-01T18:46:42;14.40;;;9.50;;
78903;SDS011;68291;49.602;8.722;2023-03-01T18:49:22;12.60;;;9.17;;
78903;SDS011;68291;49.602;8.722;2023-03-01T18:52:12;13.07;;;9.30;;
78903;SDS011;68291;49.602;8.722;2023-03-01T18:54:52;16.70;;;10.13;;
78903;SDS011;68291;49.602;8.722;2023-03-01T18:57:40;11.73;;;9.23;;
78903;SDS011;68291;49.602;8.722;2023-03-01T19:00:32;11.63;;;8.67;;
78903;SDS011;68291;49.602;8.722;2023-03-01T19:03:21;11.53;;;8.90;;
78903;SDS011;68291;49.602;8.722;2023-03-01T19:05:55;12.80;;;9.77;;
78903;SDS011;68291;49.602;8.722;2023-03-01T19:08:34;12.20;;;9.17;;
78903;SDS011;68291;49.602;8.722;2023-03-01T19:11:23;17.43;;;9.30;;
78903;SDS011;68291;49.602;8.722;2023-03-01T19:14:18;12.73;;;9.37;;
78903;SDS011;68291;49.602;8.722;2023-03-01T19:17:07;16.00;;;9.33;;
78903;SDS011;68291;49.602;8.722;2023-03-01T19:19:46;12.63;;;8.77;;
78903;SDS011;68291;49.602;8.722;2023-03-01T19:25:57;11.73;;;9.37;;
78903;SDS011;68291;49.602;8.722;2023-03-01T19:28:29;14.17;;;8.87;;
78903;SDS011;68291;49.602;8.722;2023-03-01T19:31:07;11.93;;;9.77;;
78903;SDS011;68291;49.602;8.722;2023-03-01T19:33:55;14.53;;;10.50;;
78903;SDS011;68291;49.602;8.722;2023-03-01T19:36:54;12.33;;;9.00;;
78903;SDS011;68291;49.602;8.722;2023-03-01T19:42:36;13.53;;;9.73;;
78903;SDS011;68291;49.602;8.722;2023-03-01T19:45:18;15.03;;;10.80;;
78903;SDS011;68291;49.602;8.722;2023-03-01T19:48:21;11.23;;;9.40;;
78903;SDS011;68291;49.602;8.722;2023-03-01T19:51:04;13.00;;;10.17;;
78903;SDS011;68291;49.602;8.722;2023-03-01T19:54:02;13.47;;;10.10;;
78903;SDS011;68291;49.602;8.722;2023-03-01T19:56:45;15.43;;;10.27;;
78903;SDS011;68291;49.602;8.722;2023-03-01T19:59:20;15.70;;;10.87;;
78903;SDS011;68291;49.602;8.722;2023-03-01T20:02:20;15.77;;;10.07;;
78903;SDS011;68291;49.602;8.722;2023-03-01T20:05:11;15.03;;;10.37;;
78903;SDS011;68291;49.602;8.722;2023-03-01T20:07:53;17.77;;;12.00;;
78903;SDS011;68291;49.602;8.722;2023-03-01T20:10:38;14.70;;;10.67;;
78903;SDS011;68291;49.602;8.722;2023-03-01T20:13:29;16.37;;;11.73;;
78903;SDS011;68291;49.602;8.722;2023-03-01T20:16:14;15.60;;;11.43;;
78903;SDS011;68291;49.602;8.722;2023-03-01T20:18:59;16.90;;;11.37;;
78903;SDS011;68291;49.602;8.722;2023-03-01T20:21:41;19.17;;;11.13;;
78903;SDS011;68291;49.602;8.722;2023-03-01T20:24:29;17.37;;;12.00;;
78903;SDS011;68291;49.602;8.722;2023-03-01T20:27:01;14.87;;;11.63;;
78903;SDS011;68291;49.602;8.722;2023-03-01T20:29:59;15.40;;;11.17;;
78903;SDS011;68291;49.602;8.722;2023-03-01T20:32:56;16.57;;;10.90;;
78903;SDS011;68291;49.602;8.722;2023-03-01T20:35:41;17.60;;;11.50;;
78903;SDS011;68291;49.602;8.722;2023-03-01T20:38:20;16.00;;;11.90;;
78903;SDS011;68291;49.602;8.722;2023-03-01T20:41:03;19.10;;;12.03;;
78903;SDS011;68291;49.602;8.722;2023-03-01T20:43:40;16.33;;;12.23;;
78903;SDS011;68291;49.602;8.722;2023-03-01T20:49:30;18.17;;;12.43;;
78903;SDS011;68291;49.602;8.722;2023-03-01T20:52:09;14.87;;;11.73;;
78903;SDS011;68291;49.602;8.722;2023-03-01T20:54:43;15.57;;;11.67;;
78903;SDS011;68291;49.602;8.722;2023-03-01T20:57:39;16.50;;;11.90;;
78903;SDS011;68291;49.602;8.722;2023-03-01T21:00:20;18.13;;;11.30;;
78903;SDS011;68291;49.602;8.722;2023-03-01T21:03:25;17.17;;;12.00;;
78903;SDS011;68291;49.602;8.722;2023-03-01T21:06:08;16.77;;;11.17;;
78903;SDS011;68291;49.602;8.722;2023-03-01T21:08:56;15.03;;;10.27;;
78903;SDS011;68291;49.602;8.722;2023-03-01T21:11:28;16.90;;;11.90;;
78903;SDS011;68291;49.602;8.722;2023-03-01T21:14:14;15.33;;;11.47;;
78903;SDS011;68291;49.602;8.722;2023-03-01T21:17:14;17.63;;;12.80;;
78903;SDS011;68291;49.602;8.722;2023-03-01T21:20:09;17.97;;;12.73;;
78903;SDS011;68291;49.602;8.722;2023-03-01T21:23:01;17.47;;;12.27;;
78903;SDS011;68291;49.602;8.722;2023-03-01T21:25:36;17.23;;;12.57;;
78903;SDS011;68291;49.602;8.722;2023-03-01T21:28:25;15.97;;;12.20;;
78903;SDS011;68291;49.602;8.722;2023-03-01T21:31:11;16.27;;;12.30;;
78903;SDS011;68291;49.602;8.722;2023-03-01T21:33:52;15.63;;;11.60;;
78903;SDS011;68291;49.602;8.722;2023-03-01T21:36:43;18.30;;;12.23;;
78903;SDS011;68291;49.602;8.722;2023-03-01T21:39:17;16.40;;;12.60;;
78903;SDS011;68291;49.602;8.722;2023-03-01T21:41:54;18.97;;;12.37;;
78903;SDS011;68291;49.602;8.722;2023-03-01T21:44:36;17.10;;;12.20;;
78903;SDS011;68291;49.602;8.722;2023-03-01T21:47:21;17.70;;;12.43;;
78903;SDS011;68291;49.602;8.722;2023-03-01T21:50:03;18.00;;;12.67;;
78903;SDS011;68291;49.602;8.722;2023-03-01T21:52:38;17.40;;;12.67;;
78903;SDS011;68291;49.602;8.722;2023-03-01T21:55:10;21.43;;;13.70;;
78903;SDS011;68291;49.602;8.722;2023-03-01T21:58:06;18.47;;;13.43;;
78903;SDS011;68291;49.602;8.722;2023-03-01T22:00:53;18.90;;;13.07;;
78903;SDS011;68291;49.602;8.722;2023-03-01T22:03:36;19.10;;;14.27;;
78903;SDS011;68291;49.602;8.722;2023-03-01T22:06:29;20.17;;;13.23;;
78903;SDS011;68291;49.602;8.722;2023-03-01T22:09:27;15.87;;;12.23;;
78903;SDS011;68291;49.602;8.722;2023-03-01T22:12:22;18.83;;;12.80;;
78903;SDS011;68291;49.602;8.722;2023-03-01T22:15:17;17.77;;;12.53;;
78903;SDS011;68291;49.602;8.722;2023-03-01T22:17:50;18.63;;;12.60;;
78903;SDS011;68291;49.602;8.722;2023-03-01T22:20:31;18.47;;;12.73;;
78903;SDS011;68291;49.602;8.722;2023-03-01T22:23:11;22.17;;;13.13;;
78903;SDS011;68291;49.602;8.722;2023-03-01T22:29:09;18.37;;;13.90;;
78903;SDS011;68291;49.602;8.722;2023-03-01T22:31:59;17.70;;;13.40;;
78903;SDS011;68291;49.602;8.722;2023-03-01T22:34:36;16.17;;;12.10;;
78903;SDS011;68291;49.602;8.722;2023-03-01T22:37:30;18.20;;;12.47;;
78903;SDS011;68291;49.602;8.722;2023-03-01T22:40:14;18.10;;;13.10;;
78903;SDS011;68291;49.602;8.722;2023-03-01T22:43:02;19.73;;;13.70;;
78903;SDS011;68291;49.602;8.722;2023-03-01T22:45:50;21.03;;;13.80;;
78903;SDS011;68291;49.602;8.722;2023-03-01T22:48:33;18.10;;;13.37;;
78903;SDS011;68291;49.602;8.722;2023-03-01T22:51:14;16.80;;;12.60;;
78903;SDS011;68291;49.602;8.722;2023-03-01T22:54:17;18.00;;;12.50;;
78903;SDS011;68291;49.602;8.722;2023-03-01T22:56:55;18.23;;;13.50;;
78903;SDS011;68291;49.602;8.722;2023-03-01T22:59:44;17.50;;;11.83;;
78903;SDS011;68291;49.602;8.722;2023-03-01T23:02:32;19.57;;;14.03;;
78903;SDS011;68291;49.602;8.722;2023-03-01T23:05:16;17.60;;;12.80;;
78903;SDS011;68291;49.602;8.722;2023-03-01T23:07:59;18.73;;;13.83;;
78903;SDS011;68291;49.602;8.722;2023-03-01T23:10:43;16.93;;;13.07;;
78903;SDS011;68291;49.602;8.722;2023-03-01T23:13:28;17.10;;;12.50;;
78903;SDS011;68291;49.602;8.722;2023-03-01T23:16:33;19.57;;;13.77;;
78903;SDS011;68291;49.602;8.722;2023-03-01T23:19:22;19.70;;;13.17;;
78903;SDS011;68291;49.602;8.722;2023-03-01T23:22:08;19.97;;;13.07;;
78903;SDS011;68291;49.602;8.722;2023-03-01T23:24:50;18.07;;;13.30;;
78903;SDS011;68291;49.602;8.722;2023-03-01T23:27:29;16.07;;;12.50;;
78903;SDS011;68291;49.602;8.722;2023-03-01T23:30:08;20.47;;;13.73;;
78903;SDS011;68291;49.602;8.722;2023-03-01T23:32:50;20.53;;;14.60;;
78903;SDS011;68291;49.602;8.722;2023-03-01T23:35:37;20.00;;;14.80;;
78903;SDS011;68291;49.602;8.722;2023-03-01T23:38:34;21.63;;;13.70;;
78903;SDS011;68291;49.602;8.722;2023-03-01T23:41:27;21.03;;;14.33;;
78903;SDS011;68291;49.602;8.722;2023-03-01T23:44:24;21.90;;;14.53;;
78903;SDS011;68291;49.602;8.722;2023-03-01T23:46:56;21.23;;;14.23;;
78903;SDS011;68291;49.602;8.722;2023-03-01T23:52:46;19.70;;;13.53;;
78903;SDS011;68291;49.602;8.722;2023-03-01T23:55:44;16.77;;;13.83;;
78903;SDS011;68291;49.602;8.722;2023-03-01T23:58:23;19.70;;;13.57;;
